aviador You're here:

LKPR Decoded Metar

PRAGUE in CZECH REPUBLIC
Report Time2017-11-25 00:00:00
UTC Time2017-11-25 00:19:03
Flight Rules vfr VFR
Wind240° at 07 kt
W.Decomp.*RWY 24: 7.0 kt HW 0.2 kt LCW
RWY 22: 6.7 kt HW 2.2 kt RCW
RWY 30: 3.3 kt HW 6.2 kt LCW
W.Rank240° ranks 2
Current wind is below 240° avg. (10.5)
Visibility9999 m
Phenomena:N/A
Clouds:N/A
Expected CloudBase > 1,600 ft AGL from Temp-Dew spread
CeilingNone
Temp10°C (ISA -3)
Dew Point06°C (76% RH)
AAT6.6°C
QNH1013 hPa
Density Alt1,017 ft
Elevation1,198 ft
Report Wrong Elevation
Raw Report
LKPR 250000Z 24007KT CAVOK 10/06 Q1013 NOSIG=

Extra information for LKPR:More info

Metar Taf Metar & Taf Last 4 Metars F.Rules Stats Wind Profile Meteogram Temp Stats Airport Information Weather charts Add Link Nearby VenuesMetar ALERT Operation Metar Decoded Social comments